Wealdstone, United Kingdom

12:25 AM GMT on December 05, 2016 (GMT +0000)
Harrow | | Change Station

Elev 0 ft 51.59 °N, 0.34 °W | Updated 4 hours ago

Clear
Clear
35.2 °F
Feels Like 35.2 °F
N
0.0
Wind Variable Wind from SSE
Gusts 4.0 mph

Today
High -- | Low -- °F
--% Chance of Precip.
Yesterday
High -- | Low -- °F
Precip. -- in
Pressure 30.21 in
Visibility 5.6 miles
Clouds
Dew Point 20.7 °F
Humidity 55%
Rainfall in
Snow Depth Not available.
7:50 AM 3:53 PM
Waxing Crescent, 26% visible
METAR EGLL 050020Z AUTO 04004KT 9000 NCD 01/M01 Q1023 NOSIG
Pressure 30.21 in
Visibility 5.6 miles
Clouds
Dew Point 20.7 °F
Humidity 55%
Rainfall in
Snow Depth Not available.
7:50 AM 3:53 PM
Waxing Crescent, 26% visible
METAR EGLL 050020Z AUTO 04004KT 9000 NCD 01/M01 Q1023 NOSIG

10-Day Weather Forecast

×

Almanac

Astronomy

Dec. 05, 2016 Rise Set
Actual Time
Civil Twilight
Nautical Twilight
Astronomical Twilight
Moon
Length of Visible Light
Length of Day
Tomorrow will be .
, % of the Moon is Illuminated

Today's Extremes

Country Highs Country Lows

Community

WunderPhotos

Upload Photos

1,955,724 photos uploaded!

WunderBlog® & News

Nearby

Air Quality

  Air Quality AQ Index Pollutant
Not available.

Snow Depth

Station Depth Elevation

Earthquake Activity

City Distance Mag. Time & Date
Minimum magnitude displayed is 2.5.

Coastal Water Temperatures

Place Temperature

Stations

Nearby Weather Stations

Station Location Temp. Windchill Dew Point Humidity Wind Precip. Elev Updated Type